TAF and METAR

METAR for Jeju International Airport

RKPC 192100Z 17004KT 9999 FEW020 16/13 Q1021 NOSIG
Report created 19. okt 23:00
wind 4 knots from S (170°) visibility > 10km some clouds (~25% cover) at 2000 feet Temperature 16° with dewpoint at 13° (Humidity 82.40%) Pressure 1021 hPa no significant weather change expected the next couple of hours

TAF for Jeju International Airport

TAF RKPC 191700Z 1918/2024 18006KT 9999 BKN030 TN16/1920Z TX21/2005Z TN16/2020Z BECMG 2000/2001 06008KT BECMG 2003/2004 SCT030 BECMG 2009/2010 17006KT BECMG 2014/2015 06008KT
Report created 19. okt 19:00

between 19. okt 20:00 - 20. okt 02:00

wind 6 knots from S (180°) visibility > 10km broken clouds (~75% cover) at 3000 feet Min temperature 16° expected today at around 22 o'clock